sensor_id;sensor_type;location;lat;lon;timestamp;P1;durP1;ratioP1;P2;durP2;ratioP2
18267;SDS011;9260;49.998;19.880;2023-02-01T00:07:34;185.80;;;88.37;;
18267;SDS011;9260;49.998;19.880;2023-02-01T00:17:39;182.87;;;84.57;;
18267;SDS011;9260;49.998;19.880;2023-02-01T00:27:43;184.23;;;84.70;;
18267;SDS011;9260;49.998;19.880;2023-02-01T00:37:53;182.77;;;81.37;;
18267;SDS011;9260;49.998;19.880;2023-02-01T00:48:00;185.83;;;85.67;;
18267;SDS011;9260;49.998;19.880;2023-02-01T00:58:05;179.83;;;81.70;;
18267;SDS011;9260;49.998;19.880;2023-02-01T01:08:11;183.20;;;83.80;;
18267;SDS011;9260;49.998;19.880;2023-02-01T01:18:16;184.00;;;84.00;;
18267;SDS011;9260;49.998;19.880;2023-02-01T01:28:20;181.77;;;81.73;;
18267;SDS011;9260;49.998;19.880;2023-02-01T01:38:26;179.70;;;83.57;;
18267;SDS011;9260;49.998;19.880;2023-02-01T01:48:30;180.80;;;83.40;;
18267;SDS011;9260;49.998;19.880;2023-02-01T01:58:37;183.47;;;85.97;;
18267;SDS011;9260;49.998;19.880;2023-02-01T02:08:41;183.30;;;83.83;;
18267;SDS011;9260;49.998;19.880;2023-02-01T02:18:57;182.17;;;83.47;;
18267;SDS011;9260;49.998;19.880;2023-02-01T02:40:11;182.07;;;82.07;;
18267;SDS011;9260;49.998;19.880;2023-02-01T02:50:25;182.20;;;82.97;;
18267;SDS011;9260;49.998;19.880;2023-02-01T03:00:51;178.57;;;80.97;;
18267;SDS011;9260;49.998;19.880;2023-02-01T03:11:14;178.50;;;78.03;;
18267;SDS011;9260;49.998;19.880;2023-02-01T03:21:21;183.70;;;83.73;;
18267;SDS011;9260;49.998;19.880;2023-02-01T03:31:30;176.73;;;81.43;;
18267;SDS011;9260;49.998;19.880;2023-02-01T03:41:37;178.90;;;81.83;;
18267;SDS011;9260;49.998;19.880;2023-02-01T03:51:45;180.37;;;83.43;;
18267;SDS011;9260;49.998;19.880;2023-02-01T04:01:51;178.03;;;80.50;;
18267;SDS011;9260;49.998;19.880;2023-02-01T04:11:55;175.87;;;80.03;;
18267;SDS011;9260;49.998;19.880;2023-02-01T04:22:01;182.33;;;82.03;;
18267;SDS011;9260;49.998;19.880;2023-02-01T04:32:05;183.63;;;86.10;;
18267;SDS011;9260;49.998;19.880;2023-02-01T04:42:10;181.73;;;84.77;;
18267;SDS011;9260;49.998;19.880;2023-02-01T04:52:15;178.97;;;82.83;;
18267;SDS011;9260;49.998;19.880;2023-02-01T05:02:20;178.87;;;83.60;;
18267;SDS011;9260;49.998;19.880;2023-02-01T05:12:24;176.10;;;81.40;;
18267;SDS011;9260;49.998;19.880;2023-02-01T05:22:47;174.83;;;79.50;;
18267;SDS011;9260;49.998;19.880;2023-02-01T05:32:51;175.67;;;79.27;;
18267;SDS011;9260;49.998;19.880;2023-02-01T05:42:56;180.33;;;80.90;;
18267;SDS011;9260;49.998;19.880;2023-02-01T05:53:00;180.50;;;81.30;;
18267;SDS011;9260;49.998;19.880;2023-02-01T06:03:05;184.27;;;85.47;;
18267;SDS011;9260;49.998;19.880;2023-02-01T06:13:10;184.17;;;83.73;;
18267;SDS011;9260;49.998;19.880;2023-02-01T06:23:16;191.33;;;86.67;;
18267;SDS011;9260;49.998;19.880;2023-02-01T06:33:19;182.83;;;82.93;;
18267;SDS011;9260;49.998;19.880;2023-02-01T06:43:25;192.27;;;84.73;;
18267;SDS011;9260;49.998;19.880;2023-02-01T06:53:30;192.20;;;87.40;;
18267;SDS011;9260;49.998;19.880;2023-02-01T07:03:35;179.97;;;81.80;;
18267;SDS011;9260;49.998;19.880;2023-02-01T07:13:40;189.17;;;82.50;;
18267;SDS011;9260;49.998;19.880;2023-02-01T07:23:45;194.27;;;85.33;;
18267;SDS011;9260;49.998;19.880;2023-02-01T07:33:49;187.70;;;83.90;;
18267;SDS011;9260;49.998;19.880;2023-02-01T07:43:55;188.37;;;85.40;;
18267;SDS011;9260;49.998;19.880;2023-02-01T07:53:59;192.47;;;87.83;;
18267;SDS011;9260;49.998;19.880;2023-02-01T08:04:04;187.97;;;81.60;;
18267;SDS011;9260;49.998;19.880;2023-02-01T08:14:08;197.03;;;95.23;;
18267;SDS011;9260;49.998;19.880;2023-02-01T08:24:13;203.00;;;105.37;;
18267;SDS011;9260;49.998;19.880;2023-02-01T08:34:17;191.30;;;85.07;;
18267;SDS011;9260;49.998;19.880;2023-02-01T08:44:22;206.30;;;110.07;;
18267;SDS011;9260;49.998;19.880;2023-02-01T08:54:26;210.07;;;114.13;;
18267;SDS011;9260;49.998;19.880;2023-02-01T09:04:31;191.20;;;86.30;;
18267;SDS011;9260;49.998;19.880;2023-02-01T09:14:35;192.70;;;86.83;;
18267;SDS011;9260;49.998;19.880;2023-02-01T09:24:40;198.40;;;89.13;;
18267;SDS011;9260;49.998;19.880;2023-02-01T09:34:44;196.50;;;90.20;;
18267;SDS011;9260;49.998;19.880;2023-02-01T09:44:56;198.33;;;86.43;;
18267;SDS011;9260;49.998;19.880;2023-02-01T09:55:13;199.90;;;93.50;;
18267;SDS011;9260;49.998;19.880;2023-02-01T10:05:25;199.90;;;86.77;;
18267;SDS011;9260;49.998;19.880;2023-02-01T10:16:04;194.40;;;85.60;;
18267;SDS011;9260;49.998;19.880;2023-02-01T10:26:24;197.00;;;85.80;;
18267;SDS011;9260;49.998;19.880;2023-02-01T10:36:35;200.93;;;89.20;;
18267;SDS011;9260;49.998;19.880;2023-02-01T10:46:46;200.30;;;89.60;;
18267;SDS011;9260;49.998;19.880;2023-02-01T10:56:50;202.87;;;89.47;;
18267;SDS011;9260;49.998;19.880;2023-02-01T11:07:05;202.60;;;91.70;;
18267;SDS011;9260;49.998;19.880;2023-02-01T11:17:21;198.90;;;86.73;;
18267;SDS011;9260;49.998;19.880;2023-02-01T11:27:31;207.50;;;90.40;;
18267;SDS011;9260;49.998;19.880;2023-02-01T11:37:43;203.23;;;89.83;;
18267;SDS011;9260;49.998;19.880;2023-02-01T11:47:54;199.23;;;88.67;;
18267;SDS011;9260;49.998;19.880;2023-02-01T11:58:02;204.50;;;89.90;;
18267;SDS011;9260;49.998;19.880;2023-02-01T12:08:32;196.97;;;89.23;;
18267;SDS011;9260;49.998;19.880;2023-02-01T12:19:18;205.50;;;93.17;;
18267;SDS011;9260;49.998;19.880;2023-02-01T12:29:46;200.77;;;87.43;;
18267;SDS011;9260;49.998;19.880;2023-02-01T12:40:05;198.63;;;85.67;;
18267;SDS011;9260;49.998;19.880;2023-02-01T12:50:27;203.10;;;90.60;;
18267;SDS011;9260;49.998;19.880;2023-02-01T13:00:36;200.43;;;87.97;;
18267;SDS011;9260;49.998;19.880;2023-02-01T13:10:45;196.30;;;87.70;;
18267;SDS011;9260;49.998;19.880;2023-02-01T13:20:58;204.50;;;89.47;;
18267;SDS011;9260;49.998;19.880;2023-02-01T13:31:15;192.87;;;84.80;;
18267;SDS011;9260;49.998;19.880;2023-02-01T13:41:51;194.33;;;84.00;;
18267;SDS011;9260;49.998;19.880;2023-02-01T13:51:59;192.00;;;83.83;;
18267;SDS011;9260;49.998;19.880;2023-02-01T14:12:51;191.17;;;85.50;;
18267;SDS011;9260;49.998;19.880;2023-02-01T14:23:10;191.23;;;84.50;;
18267;SDS011;9260;49.998;19.880;2023-02-01T14:33:21;202.27;;;97.83;;
18267;SDS011;9260;49.998;19.880;2023-02-01T14:53:54;188.80;;;83.87;;
18267;SDS011;9260;49.998;19.880;2023-02-01T15:04:01;190.80;;;86.40;;
18267;SDS011;9260;49.998;19.880;2023-02-01T15:14:12;190.23;;;85.03;;
18267;SDS011;9260;49.998;19.880;2023-02-01T15:24:21;188.07;;;87.03;;
18267;SDS011;9260;49.998;19.880;2023-02-01T15:44:51;186.40;;;84.40;;
18267;SDS011;9260;49.998;19.880;2023-02-01T15:54:56;198.27;;;88.40;;
18267;SDS011;9260;49.998;19.880;2023-02-01T16:05:03;191.13;;;88.07;;
18267;SDS011;9260;49.998;19.880;2023-02-01T16:15:10;197.27;;;96.30;;
18267;SDS011;9260;49.998;19.880;2023-02-01T16:25:14;191.67;;;88.30;;
18267;SDS011;9260;49.998;19.880;2023-02-01T16:35:20;210.23;;;119.13;;
18267;SDS011;9260;49.998;19.880;2023-02-01T16:45:28;214.93;;;128.80;;
18267;SDS011;9260;49.998;19.880;2023-02-01T16:55:33;193.60;;;95.80;;
18267;SDS011;9260;49.998;19.880;2023-02-01T17:05:37;202.37;;;100.13;;
18267;SDS011;9260;49.998;19.880;2023-02-01T17:15:43;195.20;;;87.40;;
18267;SDS011;9260;49.998;19.880;2023-02-01T17:25:52;192.40;;;86.73;;
18267;SDS011;9260;49.998;19.880;2023-02-01T17:35:58;195.80;;;92.20;;
18267;SDS011;9260;49.998;19.880;2023-02-01T17:46:03;197.47;;;86.90;;
18267;SDS011;9260;49.998;19.880;2023-02-01T17:56:15;192.60;;;89.87;;
18267;SDS011;9260;49.998;19.880;2023-02-01T18:06:21;202.97;;;91.97;;
18267;SDS011;9260;49.998;19.880;2023-02-01T18:16:29;194.07;;;86.70;;
18267;SDS011;9260;49.998;19.880;2023-02-01T18:26:35;194.80;;;86.23;;
18267;SDS011;9260;49.998;19.880;2023-02-01T18:36:40;207.57;;;103.27;;
18267;SDS011;9260;49.998;19.880;2023-02-01T18:46:45;200.10;;;95.90;;
18267;SDS011;9260;49.998;19.880;2023-02-01T18:56:50;194.17;;;88.47;;
18267;SDS011;9260;49.998;19.880;2023-02-01T19:06:54;197.00;;;90.53;;
18267;SDS011;9260;49.998;19.880;2023-02-01T19:17:03;229.10;;;137.37;;
18267;SDS011;9260;49.998;19.880;2023-02-01T19:27:06;217.57;;;127.53;;
18267;SDS011;9260;49.998;19.880;2023-02-01T19:37:14;197.77;;;92.47;;
18267;SDS011;9260;49.998;19.880;2023-02-01T19:47:37;196.20;;;85.83;;
18267;SDS011;9260;49.998;19.880;2023-02-01T19:57:44;197.23;;;89.10;;
18267;SDS011;9260;49.998;19.880;2023-02-01T20:07:48;189.43;;;85.27;;
18267;SDS011;9260;49.998;19.880;2023-02-01T20:17:54;193.67;;;87.10;;
18267;SDS011;9260;49.998;19.880;2023-02-01T20:27:58;199.93;;;94.93;;
18267;SDS011;9260;49.998;19.880;2023-02-01T20:38:03;203.13;;;88.93;;
18267;SDS011;9260;49.998;19.880;2023-02-01T20:48:08;193.37;;;85.83;;
18267;SDS011;9260;49.998;19.880;2023-02-01T20:58:15;196.03;;;98.43;;
18267;SDS011;9260;49.998;19.880;2023-02-01T21:08:19;197.60;;;98.97;;
18267;SDS011;9260;49.998;19.880;2023-02-01T21:18:24;227.67;;;146.77;;
18267;SDS011;9260;49.998;19.880;2023-02-01T21:28:28;189.87;;;85.30;;
18267;SDS011;9260;49.998;19.880;2023-02-01T21:38:33;198.00;;;96.30;;
18267;SDS011;9260;49.998;19.880;2023-02-01T21:48:37;192.73;;;98.60;;
18267;SDS011;9260;49.998;19.880;2023-02-01T21:59:03;194.80;;;97.60;;
18267;SDS011;9260;49.998;19.880;2023-02-01T22:09:09;188.97;;;88.73;;
18267;SDS011;9260;49.998;19.880;2023-02-01T22:19:20;192.43;;;88.70;;
18267;SDS011;9260;49.998;19.880;2023-02-01T22:29:24;191.23;;;86.77;;
18267;SDS011;9260;49.998;19.880;2023-02-01T22:39:29;184.80;;;83.77;;
18267;SDS011;9260;49.998;19.880;2023-02-01T22:49:33;187.17;;;86.73;;
18267;SDS011;9260;49.998;19.880;2023-02-01T22:59:38;188.37;;;86.63;;
18267;SDS011;9260;49.998;19.880;2023-02-01T23:09:42;188.20;;;85.57;;
18267;SDS011;9260;49.998;19.880;2023-02-01T23:19:48;188.57;;;85.13;;
18267;SDS011;9260;49.998;19.880;2023-02-01T23:29:51;184.87;;;84.53;;
18267;SDS011;9260;49.998;19.880;2023-02-01T23:39:57;181.70;;;81.93;;
18267;SDS011;9260;49.998;19.880;2023-02-01T23:50:01;186.13;;;84.43;;
